Time;durP1;ratioP1;P1;durP2;ratioP2;P2;SDS_P1;SDS_P2;PMS_P1;PMS_P2;Temp;Humidity;BMP_temperature;BMP_pressure;BME280_temperature;BME280_humidity;BME280_pressure;Samples;Min_cycle;Max_cycle;Signal;HPM_P1;HPM_P2
2021/03/20 00:01:06;;;;;;;11.25;6.00;;;;;;;-2.49;61.99;99841.56;5087753;28;20036;-64
2021/03/20 00:03:33;;;;;;;11.73;6.47;;;;;;;-2.51;61.02;99833.75;5077836;28;20031;-66
2021/03/20 00:05:58;;;;;;;13.55;6.93;;;;;;;-2.60;61.03;99824.34;5087427;28;20031;-66
2021/03/20 00:08:24;;;;;;;12.50;7.18;;;;;;;-2.54;61.50;99831.19;5073124;28;20036;-58
2021/03/20 00:10:51;;;;;;;10.40;6.43;;;;;;;-2.75;61.45;99815.13;5083509;28;20039;-65
2021/03/20 00:13:19;;;;;;;10.13;6.05;;;;;;;-2.57;61.14;99844.41;5090902;28;20040;-66
2021/03/20 00:15:44;;;;;;;12.75;6.88;;;;;;;-3.01;61.57;99759.94;5084094;28;20461;-65
2021/03/20 00:18:10;;;;;;;15.65;6.15;;;;;;;-2.60;61.38;99840.06;5090241;28;20040;-60
2021/03/20 00:20:40;;;;;;;11.40;6.32;;;;;;;-2.63;61.45;99839.31;5090950;28;20127;-66
2021/03/20 00:23:06;;;;;;;9.13;5.00;;;;;;;-2.82;61.27;99812.72;5073799;28;20757;-67
2021/03/20 00:25:32;;;;;;;12.05;5.82;;;;;;;-2.66;61.72;99837.63;5084745;28;20044;-67
2021/03/20 00:27:59;;;;;;;10.18;6.18;;;;;;;-2.93;61.57;99789.41;5087045;28;20040;-67
2021/03/20 00:30:26;;;;;;;11.05;6.18;;;;;;;-2.64;61.30;99834.97;5090226;28;20536;-65
2021/03/20 00:32:51;;;;;;;11.35;6.32;;;;;;;-2.67;61.33;99843.78;5091015;28;20455;-66
2021/03/20 00:35:19;;;;;;;10.13;5.95;;;;;;;-2.70;61.05;99838.63;5086452;28;20025;-66
2021/03/20 00:37:45;;;;;;;10.18;6.50;;;;;;;-2.71;61.47;99841.25;5078525;28;20482;-66
2021/03/20 00:40:16;;;;;;;9.20;5.70;;;;;;;-2.76;61.60;99831.75;5071682;28;20556;-64
2021/03/20 00:42:42;;;;;;;13.40;6.70;;;;;;;-2.72;61.11;99840.41;5088566;28;20517;-67
2021/03/20 00:45:10;;;;;;;11.18;6.30;;;;;;;-2.94;61.37;99808.63;5090508;28;20039;-68
2021/03/20 00:47:36;;;;;;;13.27;6.80;;;;;;;-2.76;61.47;99833.53;5083371;28;20115;-62
2021/03/20 00:50:05;;;;;;;11.93;6.57;;;;;;;-2.78;61.79;99838.81;5080065;28;20115;-61
2021/03/20 00:52:31;;;;;;;13.55;6.57;;;;;;;-2.79;61.57;99839.69;5088538;28;20047;-65
2021/03/20 00:54:56;;;;;;;11.65;6.20;;;;;;;-2.81;61.69;99830.16;5088880;28;20124;-65
2021/03/20 00:57:21;;;;;;;12.88;6.18;;;;;;;-2.91;61.73;99829.50;5075065;28;20051;-67
2021/03/20 00:59:47;;;;;;;9.68;5.60;;;;;;;-2.87;61.67;99836.44;5081554;28;20093;-65
2021/03/20 01:02:13;;;;;;;10.85;5.85;;;;;;;-2.92;61.83;99838.28;5082414;28;20032;-65
2021/03/20 01:04:39;;;;;;;12.15;5.93;;;;;;;-2.93;62.06;99834.81;5089756;28;20032;-65
2021/03/20 01:07:04;;;;;;;12.52;6.40;;;;;;;-2.96;61.98;99827.03;5089934;28;20032;-64
2021/03/20 01:09:32;;;;;;;10.68;5.97;;;;;;;-2.98;62.16;99827.97;5084752;28;20039;-65
2021/03/20 01:11:57;;;;;;;12.90;6.40;;;;;;;-2.98;61.91;99827.97;5086827;28;20046;-65
2021/03/20 01:14:23;;;;;;;9.18;5.82;;;;;;;-3.00;62.35;99832.38;5086937;28;20123;-65
2021/03/20 01:16:48;;;;;;;8.60;5.50;;;;;;;-3.07;62.64;99827.28;5085587;28;20036;-66
2021/03/20 01:19:13;;;;;;;9.82;5.93;;;;;;;-3.09;62.11;99828.22;5089641;28;20031;-66
2021/03/20 01:21:39;;;;;;;11.75;5.90;;;;;;;-3.11;62.13;99843.13;5089348;28;20036;-64
2021/03/20 01:24:05;;;;;;;13.05;6.30;;;;;;;-3.16;62.56;99845.84;5078663;28;20040;-66
2021/03/20 01:26:30;;;;;;;11.25;5.57;;;;;;;-3.16;62.61;99835.34;5084342;28;20111;-67
2021/03/20 01:28:56;;;;;;;8.32;4.85;;;;;;;-3.27;62.51;99819.06;5074754;28;20055;-65
2021/03/20 01:31:21;;;;;;;9.30;5.13;;;;;;;-3.33;62.08;99823.53;5090004;28;20032;-66
2021/03/20 01:33:47;;;;;;;9.75;5.03;;;;;;;-3.21;62.10;99842.47;5089359;28;20034;-66
2021/03/20 01:36:13;;;;;;;8.88;4.90;;;;;;;-3.36;62.77;99814.88;5089142;28;20044;-66
2021/03/20 01:38:38;;;;;;;8.73;4.88;;;;;;;-3.21;62.46;99847.72;5089446;28;20032;-65
2021/03/20 01:41:13;;;;;;;8.85;5.32;;;;;;;-3.25;62.37;99848.69;5083122;28;20752;-63
2021/03/20 01:43:39;;;;;;;8.73;4.93;;;;;;;-3.26;62.08;99844.34;5089259;28;20036;-64
2021/03/20 01:46:52;;;;;;;8.45;4.65;;;;;;;-3.23;62.37;99844.25;5078300;28;20363;-63
2021/03/20 01:49:37;;;;;;;7.97;3.95;;;;;;;-3.30;61.87;99838.31;5063021;28;20051;-66
2021/03/20 01:52:12;;;;;;;7.68;4.20;;;;;;;-3.31;62.48;99847.06;5079535;28;20040;-65
2021/03/20 01:54:53;;;;;;;7.57;4.32;;;;;;;-3.37;62.09;99842.84;5089008;28;20047;-65
2021/03/20 01:57:26;;;;;;;7.60;4.28;;;;;;;-3.42;62.26;99849.91;5073591;28;20055;-65
2021/03/20 01:59:53;;;;;;;10.68;4.82;;;;;;;-3.46;62.08;99843.03;5085652;28;20059;-66
2021/03/20 02:02:19;;;;;;;7.22;4.35;;;;;;;-3.54;62.25;99834.50;5071542;28;20034;-66
2021/03/20 02:04:44;;;;;;;5.63;4.00;;;;;;;-3.47;62.22;99847.44;5089271;28;20036;-64
2021/03/20 02:07:10;;;;;;;6.72;4.00;;;;;;;-3.48;62.21;99847.44;5081650;28;20032;-63
2021/03/20 02:09:36;;;;;;;7.38;3.72;;;;;;;-3.51;61.94;99858.84;5085773;28;20615;-67
2021/03/20 02:12:20;;;;;;;5.68;3.65;;;;;;;-3.50;62.26;99855.31;5085076;28;20120;-64
2021/03/20 02:14:53;;;;;;;5.50;3.83;;;;;;;-3.54;62.02;99851.06;5084486;28;20070;-65
2021/03/20 02:17:52;;;;;;;6.93;4.10;;;;;;;-3.51;62.39;99855.38;5073051;28;20032;-62
2021/03/20 02:20:40;;;;;;;8.80;4.30;;;;;;;-3.55;62.20;99866.81;5087358;28;20512;-66
2021/03/20 02:23:09;;;;;;;6.40;4.00;;;;;;;-3.59;62.21;99865.16;5088889;28;20097;-67
2021/03/20 02:25:53;;;;;;;4.85;3.45;;;;;;;-3.78;62.28;99815.84;5089163;28;20124;-66
2021/03/20 02:28:46;;;;;;;6.45;3.58;;;;;;;-3.61;61.91;99858.22;5059474;28;20041;-66
2021/03/20 02:31:23;;;;;;;7.47;4.20;;;;;;;-3.64;61.88;99855.63;5078442;28;20055;-60
2021/03/20 02:33:54;;;;;;;9.68;6.03;;;;;;;-3.68;62.16;99856.59;5092758;28;20032;-67
2021/03/20 02:36:22;;;;;;;6.20;3.92;;;;;;;-3.69;61.74;99856.66;5093228;28;20178;-66
2021/03/20 02:38:57;;;;;;;5.47;4.10;;;;;;;-4.18;61.96;99787.00;5076118;28;20032;-66
2021/03/20 02:41:35;;;;;;;5.82;3.70;;;;;;;-3.74;62.18;99859.34;5088400;28;20029;-66
2021/03/20 02:44:29;;;;;;;10.10;3.83;;;;;;;-3.72;62.36;99865.41;5081152;28;20043;-64
2021/03/20 02:46:58;;;;;;;7.57;3.75;;;;;;;-3.75;61.56;99861.09;5089404;28;20471;-61
2021/03/20 02:49:43;;;;;;;6.18;3.97;;;;;;;-3.74;61.88;99869.81;5090812;28;20035;-65
2021/03/20 02:52:34;;;;;;;;;;;;;;;-3.63;61.36;99872.19;5092764;28;20043;-64
2021/03/20 02:55:11;;;;;;;7.47;3.72;;;;;;;-3.72;61.58;99861.94;5064594;28;20307;-67
2021/03/20 02:57:53;;;;;;;5.68;3.55;;;;;;;-3.79;61.99;99861.22;5092304;28;20056;-65
2021/03/20 03:00:25;;;;;;;7.43;4.18;;;;;;;-3.86;61.64;99870.06;5079431;28;20052;-64
2021/03/20 03:02:54;;;;;;;5.50;4.00;;;;;;;-3.96;61.88;99851.09;5089122;28;20119;-67
2021/03/20 03:05:25;;;;;;;6.93;4.07;;;;;;;-3.86;61.58;99885.75;5076629;28;20437;-65
2021/03/20 03:08:34;;;;;;;5.50;3.75;;;;;;;-3.84;61.69;99868.28;5092239;28;20028;-57
2021/03/20 03:11:32;;;;;;;6.57;3.80;;;;;;;-3.85;61.67;99872.66;5081943;28;20140;-66
2021/03/20 03:14:06;;;;;;;5.97;3.78;;;;;;;-4.08;61.68;99854.81;5053265;28;20040;-66
2021/03/20 03:16:45;;;;;;;6.80;4.07;;;;;;;-3.97;61.74;99872.91;5077271;28;20035;-69
2021/03/20 03:19:18;;;;;;;6.28;3.47;;;;;;;-4.02;61.73;99870.38;5091405;28;20020;-63
2021/03/20 03:21:47;;;;;;;5.97;3.38;;;;;;;-4.00;61.36;99879.06;5091688;28;20040;-66
2021/03/20 03:24:17;;;;;;;8.18;4.15;;;;;;;-4.16;61.61;99857.59;5083451;28;20036;-66
2021/03/20 03:26:50;;;;;;;7.60;3.67;;;;;;;-4.04;61.61;99887.88;5075416;28;20449;-66
2021/03/20 03:29:21;;;;;;;5.72;3.63;;;;;;;-3.95;61.20;99884.22;5075605;28;20039;-68
2021/03/20 03:32:18;;;;;;;6.28;3.47;;;;;;;-3.93;61.08;99892.88;5091825;28;20058;-67
2021/03/20 03:35:06;;;;;;;5.32;3.25;;;;;;;-3.91;61.23;99894.56;5086412;28;20180;-66
2021/03/20 03:37:56;;;;;;;5.15;3.42;;;;;;;-3.94;60.71;99894.63;5074374;28;20040;-66
2021/03/20 03:40:34;;;;;;;6.82;3.63;;;;;;;-3.90;60.63;99896.28;5088027;28;20062;-66
2021/03/20 03:42:59;;;;;;;6.63;3.47;;;;;;;-3.87;60.57;99884.91;5091592;28;20032;-66
2021/03/20 03:45:25;;;;;;;7.55;3.97;;;;;;;-4.16;60.28;99844.50;5091576;28;20517;-64
2021/03/20 03:47:51;;;;;;;7.22;4.13;;;;;;;-3.80;60.42;99891.72;5091044;28;20032;-63
2021/03/20 03:50:30;;;;;;;8.50;4.13;;;;;;;-3.85;60.47;99877.03;5091436;28;20114;-65
2021/03/20 03:52:56;;;;;;;6.65;3.88;;;;;;;-3.70;60.32;99895.03;5090195;28;20028;-67
2021/03/20 03:55:22;;;;;;;7.55;4.25;;;;;;;-3.68;60.41;99890.59;5076522;28;20541;-67
2021/03/20 03:58:06;;;;;;;6.55;3.45;;;;;;;-3.57;60.17;99890.38;5082375;28;20631;-68
2021/03/20 04:00:36;;;;;;;10.25;4.40;;;;;;;-3.55;59.78;99887.75;5086463;28;20086;-68
2021/03/20 04:03:20;;;;;;;7.45;3.90;;;;;;;-3.48;59.73;99887.59;5083613;28;20378;-64
2021/03/20 04:06:20;;;;;;;8.70;3.97;;;;;;;-3.41;59.68;99890.91;5090660;28;20035;-68
2021/03/20 04:09:07;;;;;;;7.10;4.25;;;;;;;-3.32;59.23;99888.09;5087070;28;20382;-63
2021/03/20 04:11:46;;;;;;;9.15;4.72;;;;;;;-3.24;58.92;99894.91;5079513;28;20050;-67
2021/03/20 04:14:19;;;;;;;8.30;4.25;;;;;;;-3.30;58.58;99853.16;5083536;28;20362;-68
2021/03/20 04:17:00;;;;;;;6.95;4.03;;;;;;;-1.65;55.22;99895.22;5090969;28;20054;-68
2021/03/20 04:20:03;;;;;;;8.70;4.57;;;;;;;0.23;50.28;99893.50;5083619;28;20040;-66
2021/03/20 04:22:43;;;;;;;7.75;3.92;;;;;;;1.98;47.17;99877.75;5076611;28;20123;-67
2021/03/20 04:25:31;;;;;;;5.43;3.72;;;;;;;3.55;43.62;99886.28;5090074;28;20077;-66
2021/03/20 04:28:08;;;;;;;8.15;4.22;;;;;;;4.37;40.20;99857.31;5090440;28;20507;-64
2021/03/20 04:30:38;;;;;;;6.10;4.05;;;;;;;5.38;39.39;99878.22;5076455;28;20036;-67
2021/03/20 04:33:15;;;;;;;4.88;3.80;;;;;;;6.34;37.67;99888.50;5087494;28;20497;-68
2021/03/20 04:35:48;;;;;;;4.88;3.58;;;;;;;7.08;35.74;99828.84;5086261;28;20036;-67
2021/03/20 04:38:15;;;;;;;5.50;3.65;;;;;;;8.24;34.39;99890.31;5089918;28;20035;-65
2021/03/20 04:40:44;;;;;;;5.00;3.70;;;;;;;9.15;32.25;99882.97;5090479;28;20038;-65
2021/03/20 04:43:19;;;;;;;5.38;4.22;;;;;;;10.04;31.69;99869.19;5080540;28;20035;-69
2021/03/20 04:45:55;;;;;;;5.18;4.30;;;;;;;10.91;29.46;99870.41;5087313;28;20032;-67
2021/03/20 04:48:28;;;;;;;6.40;3.85;;;;;;;11.67;27.07;99883.91;5088372;28;20582;-67
2021/03/20 04:50:59;;;;;;;5.65;4.25;;;;;;;12.08;27.41;99901.03;5089796;28;20028;-65
2021/03/20 04:53:25;;;;;;;5.68;4.00;;;;;;;12.60;27.24;99897.47;5089929;28;20044;-60
2021/03/20 04:55:55;;;;;;;4.70;4.25;;;;;;;13.16;26.08;99890.72;5090794;28;20043;-61
2021/03/20 04:58:41;;;;;;;8.57;3.90;;;;;;;14.13;25.20;99895.38;5085749;28;20085;-67
2021/03/20 05:01:35;;;;;;;7.03;4.15;;;;;;;14.46;22.51;99842.78;5089801;28;20028;-66
2021/03/20 05:04:06;;;;;;;4.68;3.92;;;;;;;15.06;22.87;99881.09;5089650;28;20119;-64
2021/03/20 05:06:35;;;;;;;4.90;3.80;;;;;;;15.52;22.59;99890.97;5057553;28;20040;-68
2021/03/20 05:09:04;;;;;;;5.15;3.70;;;;;;;15.88;21.49;99885.56;5087977;28;20497;-68
2021/03/20 05:11:41;;;;;;;5.75;3.95;;;;;;;16.19;20.05;99888.69;5062356;28;20039;-63
2021/03/20 05:14:14;;;;;;;6.15;3.40;;;;;;;16.45;19.64;99893.22;5087471;28;20047;-62
2021/03/20 05:16:51;;;;;;;4.88;3.70;;;;;;;17.27;19.13;99878.31;5090017;28;20050;-66
2021/03/20 05:19:19;;;;;;;4.15;3.63;;;;;;;17.62;18.64;99824.91;5076453;28;20040;-67
2021/03/20 05:21:49;;;;;;;4.20;3.20;;;;;;;18.40;18.25;99835.28;5079940;28;20028;-65
2021/03/20 05:24:42;;;;;;;3.88;3.47;;;;;;;19.25;17.10;99884.38;5088899;28;20681;-63
2021/03/20 05:27:16;;;;;;;3.38;3.03;;;;;;;19.85;16.75;99884.63;5068110;28;20493;-65
2021/03/20 05:29:41;;;;;;;4.53;3.20;;;;;;;19.95;17.03;99889.84;5089576;28;20035;-66
2021/03/20 05:32:08;;;;;;;5.88;3.78;;;;;;;20.08;16.49;99883.78;5089366;28;20397;-65
2021/03/20 05:34:40;;;;;;;3.90;3.05;;;;;;;19.77;15.18;99833.06;5074493;28;20040;-64
2021/03/20 05:37:08;;;;;;;5.70;3.53;;;;;;;20.26;15.53;99882.59;5083744;28;20072;-66
2021/03/20 05:39:34;;;;;;;5.75;3.60;;;;;;;20.78;15.37;99883.50;5085299;28;20075;-66
2021/03/20 05:42:13;;;;;;;4.53;3.50;;;;;;;21.44;14.53;99876.31;5089119;28;20028;-64
2021/03/20 05:45:00;;;;;;;4.43;3.10;;;;;;;21.71;13.61;99876.63;5089484;28;20040;-66
2021/03/20 05:47:35;;;;;;;5.40;3.47;;;;;;;22.61;13.27;99865.94;5075513;28;20101;-68
2021/03/20 05:50:10;;;;;;;4.50;3.28;;;;;;;22.92;12.17;99867.31;5081879;28;20499;-67
2021/03/20 05:52:57;;;;;;;3.60;3.30;;;;;;;22.71;12.63;99876.47;5088986;28;20032;-65
2021/03/20 05:55:34;;;;;;;3.92;3.15;;;;;;;22.75;11.95;99865.97;5074428;28;20561;-66
2021/03/20 05:58:31;;;;;;;3.55;2.70;;;;;;;22.80;12.92;99869.78;5088782;28;20055;-66
2021/03/20 06:01:23;;;;;;;3.70;3.10;;;;;;;23.85;10.74;99870.44;5023671;28;20098;-66
2021/03/20 06:04:07;;;;;;;4.30;3.17;;;;;;;22.87;12.25;99869.81;5092269;28;20059;-68
2021/03/20 06:06:54;;;;;;;4.15;3.53;;;;;;;23.77;12.32;99867.94;5078702;28;20111;-69
2021/03/20 06:09:35;;;;;;;3.50;3.20;;;;;;;22.65;12.33;99864.47;5076333;28;20046;-65
2021/03/20 06:12:23;;;;;;;3.13;2.83;;;;;;;23.11;11.14;99866.75;5082114;28;20036;-67
2021/03/20 06:15:17;;;;;;;4.95;2.85;;;;;;;24.49;11.84;99870.81;5090931;28;20043;-69
2021/03/20 06:17:51;;;;;;;4.65;3.05;;;;;;;24.20;11.04;99858.47;5080962;28;20044;-66
2021/03/20 06:20:33;;;;;;;4.35;3.05;;;;;;;24.43;10.36;99870.84;5093139;28;20115;-67
2021/03/20 06:23:20;;;;;;;2.95;2.65;;;;;;;24.54;10.48;99859.25;5087446;28;20039;-68
2021/03/20 06:25:57;;;;;;;3.30;2.97;;;;;;;25.46;10.21;99857.31;5093028;28;20047;-67
2021/03/20 06:29:01;;;;;;;9.32;2.97;;;;;;;26.07;10.75;99838.50;5093084;28;20044;-68
2021/03/20 06:31:49;;;;;;;5.28;3.28;;;;;;;26.54;9.01;99857.25;5082053;28;20405;-63
2021/03/20 06:34:25;;;;;;;3.40;2.83;;;;;;;26.70;8.72;99865.94;5092701;28;20093;-68
2021/03/20 06:37:08;;;;;;;4.07;2.80;;;;;;;27.80;9.00;99868.66;5076455;28;20036;-58
2021/03/20 06:39:50;;;;;;;4.88;3.05;;;;;;;28.62;8.16;99871.63;5092592;28;20166;-60
2021/03/20 06:42:29;;;;;;;8.63;2.80;;;;;;;29.04;8.15;99862.31;5089425;28;20036;-57
2021/03/20 06:45:17;;;;;;;2.75;2.55;;;;;;;27.88;8.99;99862.78;5075632;28;20086;-58
2021/03/20 06:47:50;;;;;;;2.83;2.60;;;;;;;26.66;8.51;99865.56;5075715;28;20039;-59
2021/03/20 06:50:19;;;;;;;5.43;2.97;;;;;;;24.99;8.73;99874.88;5091862;28;20032;-59
2021/03/20 06:52:51;;;;;;;3.95;3.05;;;;;;;24.08;9.67;99871.94;5091636;28;20838;-58
2021/03/20 06:55:19;;;;;;;3.55;3.03;;;;;;;24.16;9.47;99855.34;5076146;28;20047;-56
2021/03/20 06:57:47;;;;;;;6.28;3.65;;;;;;;24.89;9.48;99858.91;5083825;28;20506;-57
2021/03/20 07:00:28;;;;;;;4.15;3.03;;;;;;;26.51;8.20;99853.03;5083528;28;20406;-60
2021/03/20 07:03:14;;;;;;;3.75;2.63;;;;;;;27.44;7.88;99853.97;5077049;28;20039;-59
2021/03/20 07:05:46;;;;;;;2.70;2.50;;;;;;;28.60;7.60;99849.00;5079363;28;20032;-59
2021/03/20 07:08:37;;;;;;;3.65;3.05;;;;;;;29.47;7.69;99846.31;5085952;28;20081;-59
2021/03/20 07:11:16;;;;;;;3.40;2.60;;;;;;;29.65;6.90;99840.53;5082978;28;20036;-60
2021/03/20 07:13:49;;;;;;;3.55;2.70;;;;;;;29.47;6.53;99847.16;5083816;28;20123;-59
2021/03/20 07:16:17;;;;;;;3.83;2.50;;;;;;;28.62;6.80;99842.19;5090713;28;20043;-60
2021/03/20 07:18:47;;;;;;;3.47;2.53;;;;;;;28.91;7.17;99831.22;5091933;28;20410;-57
2021/03/20 07:21:37;;;;;;;3.25;2.50;;;;;;;29.60;6.87;99836.88;5075612;28;20412;-61
2021/03/20 07:24:09;;;;;;;4.40;2.75;;;;;;;28.78;6.71;99831.47;5080926;28;20067;-56
2021/03/20 07:26:57;;;;;;;3.28;2.80;;;;;;;28.45;6.86;99830.25;5068354;28;20067;-58
2021/03/20 07:29:44;;;;;;;5.10;3.00;;;;;;;28.68;7.27;99834.03;5081900;28;20413;-57
2021/03/20 07:32:24;;;;;;;3.22;2.83;;;;;;;29.03;6.84;99822.91;5079947;28;20036;-53
2021/03/20 07:34:55;;;;;;;3.30;3.00;;;;;;;28.08;6.64;99821.16;5088242;28;20048;-57
2021/03/20 07:37:20;;;;;;;3.42;2.72;;;;;;;27.48;6.96;99813.91;5076102;28;20371;-56
2021/03/20 07:39:55;;;;;;;3.45;2.85;;;;;;;27.71;7.01;99809.56;5083085;28;20054;-58
2021/03/20 07:42:37;;;;;;;4.10;2.80;;;;;;;26.62;7.27;99813.00;5091665;28;20043;-61
2021/03/20 07:45:09;;;;;;;3.17;2.83;;;;;;;25.91;7.71;99799.63;5088959;28;20118;-59
2021/03/20 07:47:40;;;;;;;8.00;3.35;;;;;;;26.35;7.85;99815.25;5077776;28;20409;-59
2021/03/20 07:50:19;;;;;;;3.90;2.95;;;;;;;26.91;7.32;99806.97;5084568;28;20494;-59
2021/03/20 07:53:00;;;;;;;3.63;3.15;;;;;;;27.97;7.46;99813.75;5083436;28;20040;-56
2021/03/20 07:55:26;;;;;;;10.18;3.20;;;;;;;27.11;7.35;99800.34;5074587;28;20644;-67
2021/03/20 07:57:57;;;;;;;4.97;2.92;;;;;;;26.93;7.33;99804.81;5070356;28;20147;-66
2021/03/20 08:00:32;;;;;;;4.88;2.97;;;;;;;26.70;7.59;99778.88;5087476;28;20489;-63
2021/03/20 08:03:15;;;;;;;6.90;3.10;;;;;;;25.40;8.31;99811.63;5089600;28;20505;-60
2021/03/20 08:05:41;;;;;;;4.10;3.17;;;;;;;22.10;9.67;99792.63;5081433;28;20063;-63
2021/03/20 08:08:17;;;;;;;4.05;3.45;;;;;;;19.06;11.72;99794.28;5086422;28;20150;-62
2021/03/20 08:10:52;;;;;;;6.82;3.60;;;;;;;16.45;13.47;99795.94;5077587;28;20074;-64
2021/03/20 08:13:49;;;;;;;4.60;3.25;;;;;;;14.70;15.52;99798.28;5076765;28;20042;-62
2021/03/20 08:16:18;;;;;;;5.40;3.28;;;;;;;12.72;16.99;99796.97;5085283;28;20447;-62
2021/03/20 08:18:45;;;;;;;6.13;3.20;;;;;;;11.53;18.01;99810.00;5080124;28;20116;-63
2021/03/20 08:21:25;;;;;;;4.78;3.17;;;;;;;10.56;19.42;99804.50;5088800;28;20045;-62
2021/03/20 08:24:01;;;;;;;5.65;3.38;;;;;;;9.38;20.46;99812.75;5085070;28;20047;-67
2021/03/20 08:26:51;;;;;;;8.02;3.83;;;;;;;8.67;20.99;99809.03;5072976;28;20036;-63
2021/03/20 08:29:40;;;;;;;6.20;4.30;;;;;;;8.05;21.97;99813.41;5074105;28;20432;-63
2021/03/20 08:32:27;;;;;;;6.63;3.92;;;;;;;7.66;23.19;99809.88;5089907;28;20032;-63
2021/03/20 08:35:04;;;;;;;4.53;3.20;;;;;;;7.40;23.10;99810.72;5090735;28;20040;-63
2021/03/20 08:37:55;;;;;;;6.80;3.80;;;;;;;7.22;23.50;99822.59;5084263;28;20037;-62
2021/03/20 08:40:26;;;;;;;13.25;3.65;;;;;;;7.18;22.96;99808.63;5083310;28;20123;-60
2021/03/20 08:43:15;;;;;;;5.90;3.53;;;;;;;6.96;24.07;99804.72;5089819;28;20088;-60
2021/03/20 08:45:55;;;;;;;4.60;3.22;;;;;;;6.39;25.01;99768.50;5084737;28;20151;-62
2021/03/20 08:48:41;;;;;;;7.43;3.75;;;;;;;6.47;24.85;99803.47;5091037;28;20520;-59
2021/03/20 08:51:23;;;;;;;5.43;2.92;;;;;;;6.26;25.31;99792.38;5087932;28;20035;-59
2021/03/20 08:54:22;;;;;;;3.88;2.80;;;;;;;5.96;25.47;99794.19;5081351;28;20065;-60
2021/03/20 08:57:23;;;;;;;5.28;2.35;;;;;;;5.66;26.28;99794.25;5086608;28;20059;-59
2021/03/20 08:59:52;;;;;;;4.22;2.80;;;;;;;5.41;25.92;99787.78;5038231;28;20463;-62
2021/03/20 09:02:24;;;;;;;6.82;3.42;;;;;;;5.32;26.47;99790.03;5089503;28;20497;-63
2021/03/20 09:04:57;;;;;;;5.15;2.80;;;;;;;5.37;25.84;99788.91;5089649;28;20032;-60
2021/03/20 09:07:30;;;;;;;4.95;2.67;;;;;;;5.62;26.04;99782.13;5075446;28;20039;-64
2021/03/20 09:10:00;;;;;;;4.18;2.90;;;;;;;5.67;25.88;99770.28;5085130;28;20128;-64
2021/03/20 09:12:43;;;;;;;6.00;3.08;;;;;;;5.71;25.59;99779.75;5089370;28;20044;-61
2021/03/20 09:15:27;;;;;;;5.22;2.55;;;;;;;5.81;26.49;99782.72;5086890;28;20078;-62
2021/03/20 09:17:56;;;;;;;5.82;3.08;;;;;;;5.87;25.55;99768.16;5079038;28;20382;-61
2021/03/20 09:20:32;;;;;;;5.63;2.90;;;;;;;5.73;26.36;99782.31;5077147;28;20033;-59
2021/03/20 09:22:58;;;;;;;4.35;2.95;;;;;;;5.65;26.56;99777.44;5087083;28;20404;-62
2021/03/20 09:25:30;;;;;;;4.90;3.05;;;;;;;5.59;26.54;99775.19;5090011;28;20031;-66
2021/03/20 09:28:03;;;;;;;8.45;3.40;;;;;;;5.43;26.47;99752.22;5079958;28;20113;-64
2021/03/20 09:30:40;;;;;;;6.40;3.33;;;;;;;5.80;25.89;99762.41;5083586;28;20028;-61
2021/03/20 09:33:19;;;;;;;5.65;2.95;;;;;;;5.74;26.53;99697.22;5076939;28;20400;-63
2021/03/20 09:35:51;;;;;;;4.57;3.00;;;;;;;6.22;25.58;99764.28;5089325;28;20043;-62
2021/03/20 09:38:35;;;;;;;4.00;2.53;;;;;;;6.21;25.88;99754.59;5088882;28;20047;-63
2021/03/20 09:41:05;;;;;;;4.03;2.90;;;;;;;6.25;25.91;99756.97;5069094;28;20078;-61
2021/03/20 09:43:36;;;;;;;4.35;2.88;;;;;;;6.38;25.78;99756.16;5057008;28;20116;-61
2021/03/20 09:46:36;;;;;;;3.63;2.80;;;;;;;6.52;25.79;99764.13;5089562;28;20050;-65
2021/03/20 09:49:21;;;;;;;8.32;3.08;;;;;;;6.61;25.32;99744.88;5088285;28;20054;-61
2021/03/20 09:51:53;;;;;;;3.70;3.05;;;;;;;6.57;25.59;99753.19;5077167;28;20513;-63
2021/03/20 09:56:55;;;;;;;4.32;2.70;;;;;;;6.39;26.40;99747.25;5088919;28;20044;-58
2021/03/20 09:59:28;;;;;;;4.97;2.30;;;;;;;6.32;26.22;99752.13;5084390;28;20071;-63
2021/03/20 10:01:56;;;;;;;9.85;3.22;;;;;;;6.24;26.23;99743.75;5087540;28;20117;-63
2021/03/20 10:04:35;;;;;;;5.30;3.05;;;;;;;6.15;26.14;99742.56;5089385;28;20048;-63
2021/03/20 10:07:24;;;;;;;5.60;2.55;;;;;;;6.09;26.87;99738.50;5087476;28;20142;-62
2021/03/20 10:10:11;;;;;;;4.55;2.60;;;;;;;6.25;26.76;99740.16;5067211;28;20395;-66
2021/03/20 10:12:46;;;;;;;3.60;2.58;;;;;;;6.38;26.02;99743.75;5066008;28;20020;-63
2021/03/20 10:18:04;;;;;;;4.75;3.10;;;;;;;6.33;25.90;99737.88;5089039;28;20517;-61
2021/03/20 10:20:44;;;;;;;5.78;3.40;;;;;;;6.14;26.05;99733.72;5089015;28;20032;-63
2021/03/20 10:23:28;;;;;;;4.32;3.00;;;;;;;6.08;26.26;99726.16;5072198;28;20066;-61
2021/03/20 10:25:56;;;;;;;4.22;3.05;;;;;;;6.33;26.03;99727.25;5070006;28;20048;-61
2021/03/20 10:28:31;;;;;;;6.60;3.10;;;;;;;6.36;26.22;99737.66;5089591;28;20032;-56
2021/03/20 10:31:02;;;;;;;4.90;2.78;;;;;;;6.31;26.69;99715.84;5071971;28;20039;-60
2021/03/20 10:33:37;;;;;;;6.75;3.58;;;;;;;6.27;26.79;99727.59;5083418;28;20610;-62
2021/03/20 10:36:09;;;;;;;7.10;4.20;;;;;;;6.01;26.93;99722.16;5079142;28;20509;-56
2021/03/20 10:38:35;;;;;;;5.93;3.40;;;;;;;5.73;26.74;99718.53;5088032;28;20071;-61
2021/03/20 10:41:21;;;;;;;7.97;3.97;;;;;;;5.54;27.94;99700.25;5088841;28;20089;-60
2021/03/20 10:43:58;;;;;;;10.13;4.10;;;;;;;5.81;27.88;99716.28;5080471;28;20079;-60
2021/03/20 10:46:27;;;;;;;6.97;3.53;;;;;;;5.76;27.27;99707.72;5082557;28;20071;-61
2021/03/20 10:48:56;;;;;;;8.20;3.45;;;;;;;5.70;27.33;99708.13;5070616;28;20039;-64
2021/03/20 10:51:25;;;;;;;6.90;3.63;;;;;;;5.51;27.68;99695.97;5086275;28;20036;-60
2021/03/20 10:53:53;;;;;;;8.32;3.55;;;;;;;5.50;28.06;99709.34;5074652;28;20055;-60
2021/03/20 10:56:28;;;;;;;7.15;3.70;;;;;;;5.51;28.48;99697.78;5079303;28;20063;-64
2021/03/20 10:58:53;;;;;;;8.23;3.67;;;;;;;5.46;28.13;99695.41;5089701;28;20139;-62
2021/03/20 11:01:33;;;;;;;8.95;3.80;;;;;;;5.43;28.11;99684.97;5092315;28;20115;-60
2021/03/20 11:03:59;;;;;;;6.35;3.53;;;;;;;5.45;27.70;99678.63;5091015;28;20035;-63
2021/03/20 11:06:26;;;;;;;4.35;2.90;;;;;;;5.39;28.31;99688.78;5092433;28;20044;-67
2021/03/20 11:09:21;;;;;;;4.50;3.05;;;;;;;5.48;28.63;99682.88;5091888;28;20077;-62
2021/03/20 11:11:47;;;;;;;5.35;3.67;;;;;;;5.41;28.16;99665.63;5080471;28;20124;-58
2021/03/20 11:14:16;;;;;;;6.97;3.60;;;;;;;5.59;28.49;99674.25;5091757;28;20073;-61
2021/03/20 11:16:49;;;;;;;6.22;3.60;;;;;;;5.70;28.35;99686.88;5087562;28;20058;-61
2021/03/20 11:19:14;;;;;;;4.35;3.38;;;;;;;5.91;27.85;99662.56;5071172;28;20101;-59
2021/03/20 11:21:46;;;;;;;5.35;3.15;;;;;;;5.98;27.92;99663.84;5084759;28;20037;-61
2021/03/20 11:24:34;;;;;;;7.30;4.10;;;;;;;5.89;27.99;99666.16;5082998;28;20107;-62
2021/03/20 11:27:17;;;;;;;4.53;3.50;;;;;;;5.84;28.37;99654.97;5091800;28;20040;-60
2021/03/20 11:29:46;;;;;;;5.78;3.30;;;;;;;5.82;28.27;99663.97;5091590;28;20122;-62
2021/03/20 11:32:45;;;;;;;4.63;3.40;;;;;;;5.79;28.22;99651.78;5091755;28;20036;-63
2021/03/20 11:35:17;;;;;;;6.57;3.47;;;;;;;5.59;28.51;99648.56;5028803;28;20032;-64
2021/03/20 11:37:44;;;;;;;4.63;3.22;;;;;;;5.48;28.53;99643.06;5091491;28;20040;-58
2021/03/20 11:40:41;;;;;;;4.95;3.25;;;;;;;5.42;29.37;99646.94;5090777;28;20471;-61
2021/03/20 11:43:29;;;;;;;5.13;3.20;;;;;;;5.38;28.84;99642.78;5073671;28;20047;-60
2021/03/20 11:46:12;;;;;;;5.40;2.97;;;;;;;5.05;29.15;99627.13;5090818;28;20554;-66
2021/03/20 11:48:59;;;;;;;4.65;2.65;;;;;;;5.05;29.12;99637.72;5091354;28;20120;-59
2021/03/20 11:51:36;;;;;;;4.78;3.17;;;;;;;4.96;28.97;99628.56;5076705;28;20081;-65
2021/03/20 11:54:06;;;;;;;4.03;3.08;;;;;;;4.94;29.31;99631.28;5080626;28;20594;-61
2021/03/20 11:56:35;;;;;;;8.30;3.53;;;;;;;4.83;29.60;99609.88;5084993;28;20055;-63
2021/03/20 11:59:32;;;;;;;3.92;2.78;;;;;;;5.03;29.14;99627.22;5091193;28;20177;-60
2021/03/20 12:01:58;;;;;;;6.43;3.28;;;;;;;4.89;28.83;99602.38;5057430;28;20055;-63
2021/03/20 12:04:26;;;;;;;8.02;4.35;;;;;;;4.98;29.10;99616.88;5077916;28;20039;-60
2021/03/20 12:07:17;;;;;;;8.27;3.45;;;;;;;4.95;29.66;99609.13;5088126;28;20044;-62
2021/03/20 12:09:42;;;;;;;3.88;2.95;;;;;;;4.85;29.30;99605.31;5090806;28;20039;-63
2021/03/20 12:12:08;;;;;;;6.75;2.97;;;;;;;4.79;29.39;99605.66;5090440;28;20048;-61
2021/03/20 12:14:46;;;;;;;3.63;2.75;;;;;;;4.78;29.64;99599.53;5072844;28;20039;-61
2021/03/20 12:17:11;;;;;;;3.88;2.80;;;;;;;4.70;29.70;99586.72;5077567;28;20035;-62
2021/03/20 12:19:52;;;;;;;4.53;3.05;;;;;;;4.72;29.88;99591.94;5090872;28;20063;-59
2021/03/20 12:22:38;;;;;;;4.97;2.92;;;;;;;4.77;30.03;99591.66;5090447;28;20164;-61